createdAt,value
2019-01-23T00:00:47.022Z,-3.20
2019-01-23T00:03:16.649Z,-3.30
2019-01-23T00:05:46.445Z,-3.30
2019-01-23T00:08:16.164Z,-3.30
2019-01-23T00:10:45.901Z,-3.30
2019-01-23T00:13:15.692Z,-3.40
2019-01-23T00:15:45.349Z,-3.40
2019-01-23T00:18:15.058Z,-3.40
2019-01-23T00:20:44.764Z,-3.40
2019-01-23T00:23:14.363Z,-3.50
2019-01-23T00:25:43.985Z,-3.50
2019-01-23T00:28:13.788Z,-3.50
2019-01-23T00:30:43.388Z,-3.60
2019-01-23T00:33:13.182Z,-3.60
2019-01-23T00:35:42.806Z,-3.60
2019-01-23T00:38:12.406Z,-3.60
2019-01-23T00:40:42.013Z,-3.70
2019-01-23T00:43:11.835Z,-3.70
2019-01-23T00:45:41.461Z,-3.70
2019-01-23T00:48:11.057Z,-3.70
2019-01-23T00:50:40.687Z,-3.70
2019-01-23T00:53:10.446Z,-3.70
2019-01-23T00:55:40.105Z,-3.70
2019-01-23T00:58:09.710Z,-3.70
2019-01-23T01:00:39.605Z,-3.70
2019-01-23T01:03:09.204Z,-3.70
2019-01-23T01:05:38.806Z,-3.70
2019-01-23T01:08:08.545Z,-3.70
2019-01-23T01:10:39.206Z,-3.60
2019-01-23T01:13:09.038Z,-3.50
2019-01-23T01:15:38.717Z,-3.40
2019-01-23T01:18:08.317Z,-3.40
2019-01-23T01:20:38.192Z,-3.30
2019-01-23T01:23:08.493Z,-3.20
2019-01-23T01:25:38.190Z,-3.10
2019-01-23T01:28:07.834Z,-3.10
2019-01-23T01:30:38.405Z,-3.00
2019-01-23T01:33:08.008Z,-3.00
2019-01-23T01:35:37.778Z,-2.90
2019-01-23T01:38:07.382Z,-2.80
2019-01-23T01:40:36.976Z,-2.80
2019-01-23T01:43:06.660Z,-2.80
2019-01-23T01:45:36.252Z,-2.70
2019-01-23T01:48:05.906Z,-2.70
2019-01-23T01:50:35.534Z,-2.70
2019-01-23T01:53:05.133Z,-2.60
2019-01-23T01:55:34.921Z,-2.60
2019-01-23T01:58:04.525Z,-2.60
2019-01-23T02:00:34.171Z,-2.50
2019-01-23T02:03:03.904Z,-2.50
2019-01-23T02:05:33.564Z,-2.50
2019-01-23T02:08:03.290Z,-2.50
2019-01-23T02:10:32.989Z,-2.50
2019-01-23T02:13:03.287Z,-2.50
2019-01-23T02:15:32.918Z,-2.40
2019-01-23T02:18:02.714Z,-2.40
2019-01-23T02:20:32.362Z,-2.40
2019-01-23T02:23:01.962Z,-2.40
2019-01-23T02:25:31.694Z,-2.40
2019-01-23T02:28:01.305Z,-2.40
2019-01-23T02:30:30.901Z,-2.40
2019-01-23T02:33:00.715Z,-2.40
2019-01-23T02:35:30.549Z,-2.40
2019-01-23T02:38:00.146Z,-2.40
2019-01-23T02:40:29.872Z,-2.30
2019-01-23T02:42:59.514Z,-2.30
2019-01-23T02:45:29.120Z,-2.30
2019-01-23T02:47:59.018Z,-2.30
2019-01-23T02:50:28.708Z,-2.30
2019-01-23T02:52:58.318Z,-2.30
2019-01-23T02:55:28.009Z,-2.30
2019-01-23T02:57:57.717Z,-2.30
2019-01-23T03:00:27.413Z,-2.20
2019-01-23T03:02:57.794Z,-2.20
2019-01-23T03:05:27.424Z,-2.20
2019-01-23T03:07:57.211Z,-2.20
2019-01-23T03:10:27.001Z,-2.20
2019-01-23T03:12:56.733Z,-2.10
2019-01-23T03:15:27.137Z,-2.10
2019-01-23T03:17:56.806Z,-2.10
2019-01-23T03:20:26.430Z,-2.20
2019-01-23T03:22:56.071Z,-2.20
2019-01-23T03:25:25.670Z,-2.20
2019-01-23T03:27:55.377Z,-2.20
2019-01-23T03:30:26.367Z,-2.20
2019-01-23T03:32:55.998Z,-2.20
2019-01-23T03:35:26.335Z,-2.20
2019-01-23T03:37:56.036Z,-2.30
2019-01-23T03:40:25.649Z,-2.30
2019-01-23T03:42:55.462Z,-2.20
2019-01-23T03:45:25.066Z,-2.30
2019-01-23T03:47:54.673Z,-2.30
2019-01-23T03:50:24.320Z,-2.30
2019-01-23T03:52:53.934Z,-2.30
2019-01-23T03:55:23.817Z,-2.30
2019-01-23T03:57:53.492Z,-2.30
2019-01-23T04:00:23.188Z,-2.30
2019-01-23T04:02:52.809Z,-2.30
2019-01-23T04:05:22.513Z,-2.30
2019-01-23T04:07:52.121Z,-2.30
2019-01-23T04:10:21.708Z,-2.30
2019-01-23T04:12:51.473Z,-2.30
2019-01-23T04:15:21.171Z,-2.30
2019-01-23T04:17:50.909Z,-2.30
2019-01-23T04:20:21.629Z,-2.30
2019-01-23T04:22:51.225Z,-2.30
2019-01-23T04:25:21.017Z,-2.30
2019-01-23T04:27:50.741Z,-2.30
2019-01-23T04:30:21.881Z,-2.30
2019-01-23T04:32:51.482Z,-2.30
2019-01-23T04:35:21.132Z,-2.40
2019-01-23T04:37:50.862Z,-2.40
2019-01-23T04:40:20.474Z,-2.40
2019-01-23T04:42:50.117Z,-2.50
2019-01-23T04:45:19.703Z,-2.50
2019-01-23T04:47:49.340Z,-2.50
2019-01-23T04:50:18.950Z,-2.50
2019-01-23T04:52:56.158Z,-2.50
2019-01-23T04:55:25.970Z,-2.50
2019-01-23T04:57:55.641Z,-2.50
2019-01-23T05:00:27.708Z,-2.60
2019-01-23T05:02:57.418Z,-2.60
2019-01-23T05:05:27.057Z,-2.60
2019-01-23T05:07:56.744Z,-2.60
2019-01-23T05:10:26.399Z,-2.60
2019-01-23T05:12:55.998Z,-2.60
2019-01-23T05:15:25.646Z,-2.60
2019-01-23T05:17:55.448Z,-2.70
2019-01-23T05:20:25.294Z,-2.70
2019-01-23T05:22:54.899Z,-2.70
2019-01-23T05:25:24.530Z,-2.70
2019-01-23T05:27:54.169Z,-2.70
2019-01-23T05:30:24.713Z,-2.80
2019-01-23T05:32:54.349Z,-2.80
2019-01-23T05:35:24.054Z,-2.80
2019-01-23T05:37:53.965Z,-2.90
2019-01-23T05:40:23.682Z,-2.90
2019-01-23T05:42:53.423Z,-2.90
2019-01-23T05:45:23.777Z,-3.00
2019-01-23T05:47:54.201Z,-3.00
2019-01-23T05:50:24.008Z,-3.00
2019-01-23T05:52:54.787Z,-3.00
2019-01-23T05:55:24.386Z,-3.00
2019-01-23T05:57:54.961Z,-3.00
2019-01-23T06:00:24.830Z,-3.00
2019-01-23T06:02:54.574Z,-3.00
2019-01-23T06:05:24.176Z,-3.00
2019-01-23T06:07:54.590Z,-3.00
2019-01-23T06:10:24.292Z,-3.00
2019-01-23T06:12:53.954Z,-3.00
2019-01-23T06:15:24.036Z,-3.00
2019-01-23T06:17:53.682Z,-2.90
2019-01-23T06:20:23.310Z,-2.90
2019-01-23T06:22:52.956Z,-2.90
2019-01-23T06:25:22.911Z,-2.90
2019-01-23T06:27:52.558Z,-2.90
2019-01-23T06:30:24.694Z,-2.80
2019-01-23T06:32:54.628Z,-2.80
2019-01-23T06:35:24.853Z,-2.80
2019-01-23T06:37:55.470Z,-2.90
2019-01-23T06:40:25.122Z,-2.90
2019-01-23T06:42:54.804Z,-2.90
2019-01-23T06:45:24.491Z,-2.90
2019-01-23T06:47:54.274Z,-3.00
2019-01-23T06:50:23.914Z,-3.00
2019-01-23T06:52:53.789Z,-3.00
2019-01-23T06:55:23.443Z,-3.00
2019-01-23T06:57:53.085Z,-3.00
2019-01-23T07:00:23.505Z,-2.90
2019-01-23T07:02:53.535Z,-2.90
2019-01-23T07:05:23.169Z,-2.90
2019-01-23T07:07:52.972Z,-2.80
2019-01-23T07:10:23.845Z,-2.80
2019-01-23T07:12:53.494Z,-2.70
2019-01-23T07:15:23.143Z,-2.70
2019-01-23T07:17:52.867Z,-2.60
2019-01-23T07:20:24.044Z,-2.60
2019-01-23T07:22:53.690Z,-2.60
2019-01-23T07:25:23.406Z,-2.60
2019-01-23T07:27:53.201Z,-2.60
2019-01-23T07:30:26.457Z,-2.50
2019-01-23T07:32:58.740Z,-2.50
2019-01-23T07:35:29.096Z,-2.50
2019-01-23T07:37:58.842Z,-2.50
2019-01-23T07:40:29.183Z,-2.50
2019-01-23T07:42:58.827Z,-2.40
2019-01-23T07:45:28.640Z,-2.50
2019-01-23T07:47:58.457Z,-2.50
2019-01-23T07:50:28.130Z,-2.50
2019-01-23T07:52:57.836Z,-2.40
2019-01-23T07:55:27.639Z,-2.40
2019-01-23T07:57:57.301Z,-2.50
2019-01-23T08:00:31.494Z,-2.50
2019-01-23T08:02:58.917Z,-2.50
2019-01-23T08:05:28.716Z,-2.50
2019-01-23T08:07:59.281Z,-2.50
2019-01-23T08:10:29.103Z,-2.50
2019-01-23T08:12:58.742Z,-2.60
2019-01-23T08:15:30.674Z,-2.60
2019-01-23T08:18:00.397Z,-2.60
2019-01-23T08:20:30.504Z,-2.60
2019-01-23T08:23:00.154Z,-2.50
2019-01-23T08:25:29.794Z,-2.60
2019-01-23T08:28:00.689Z,-2.50
2019-01-23T08:30:30.357Z,-2.50
2019-01-23T08:33:00.754Z,-2.50
2019-01-23T08:35:30.398Z,-2.50
2019-01-23T08:38:00.295Z,-2.60
2019-01-23T08:40:29.925Z,-2.60
2019-01-23T08:42:59.637Z,-2.60
2019-01-23T08:45:31.138Z,-2.60
2019-01-23T08:48:00.978Z,-2.60
2019-01-23T08:50:33.997Z,-2.60
2019-01-23T08:53:03.692Z,-2.60
2019-01-23T08:55:33.409Z,-2.60
2019-01-23T08:58:03.181Z,-2.60
2019-01-23T09:00:34.222Z,-2.60
2019-01-23T09:03:04.278Z,-2.60
2019-01-23T09:05:33.941Z,-2.60
2019-01-23T09:08:05.226Z,-2.60
2019-01-23T09:10:36.774Z,-2.60
2019-01-23T09:13:06.427Z,-2.60
2019-01-23T09:15:36.073Z,-2.60
2019-01-23T09:18:07.099Z,-2.60
2019-01-23T09:20:37.411Z,-2.50
2019-01-23T09:23:07.166Z,-2.50
2019-01-23T09:25:36.870Z,-2.50
2019-01-23T09:28:06.597Z,-2.50
2019-01-23T09:30:42.570Z,-2.40
2019-01-23T09:33:21.645Z,-2.40
2019-01-23T09:36:03.624Z,-2.40
2019-01-23T09:38:45.658Z,-2.30
2019-01-23T09:41:18.640Z,-2.30
2019-01-23T09:43:54.325Z,-2.30
2019-01-23T09:46:36.126Z,-2.40
2019-01-23T09:49:11.635Z,-2.40
2019-01-23T09:52:15.224Z,-2.40
2019-01-23T09:54:44.865Z,-2.40
2019-01-23T09:57:14.550Z,-2.40
2019-01-23T09:59:44.226Z,-2.30
2019-01-23T10:02:13.938Z,-2.30
2019-01-23T10:04:43.845Z,-2.30
2019-01-23T10:07:13.503Z,-2.30
2019-01-23T10:09:43.262Z,-2.30
2019-01-23T10:12:12.896Z,-2.30
2019-01-23T10:14:42.578Z,-2.30
2019-01-23T10:17:12.385Z,-2.20
2019-01-23T10:19:42.021Z,-2.20
2019-01-23T10:22:11.733Z,-2.20
2019-01-23T10:24:41.535Z,-2.10
2019-01-23T10:27:12.221Z,-2.10
2019-01-23T10:29:41.894Z,-2.00
2019-01-23T10:32:11.538Z,-2.00
2019-01-23T10:34:41.181Z,-2.00
2019-01-23T10:37:10.821Z,-2.00
2019-01-23T10:39:40.532Z,-2.00
2019-01-23T10:42:10.186Z,-2.00
2019-01-23T10:44:40.104Z,-2.00
2019-01-23T10:47:09.801Z,-2.00
2019-01-23T10:49:39.431Z,-2.10
2019-01-23T10:52:09.138Z,-2.10
2019-01-23T10:54:39.061Z,-2.10
2019-01-23T10:57:08.716Z,-2.10
2019-01-23T10:59:38.512Z,-2.10
2019-01-23T11:02:08.154Z,-2.10
2019-01-23T11:04:37.778Z,-2.00
2019-01-23T11:07:08.018Z,-2.00
2019-01-23T11:09:37.801Z,-2.00
2019-01-23T11:12:07.705Z,-2.00
2019-01-23T11:14:38.157Z,-2.00
2019-01-23T11:17:07.999Z,-1.90
2019-01-23T11:19:37.786Z,-2.00
2019-01-23T11:22:07.509Z,-1.90
2019-01-23T11:24:37.149Z,-1.90
2019-01-23T11:27:06.978Z,-1.90
2019-01-23T11:29:37.370Z,-1.80
2019-01-23T11:32:07.038Z,-1.80
2019-01-23T11:34:37.638Z,-1.80
2019-01-23T11:37:07.273Z,-1.80
2019-01-23T11:39:36.982Z,-1.80
2019-01-23T11:42:06.665Z,-1.80
2019-01-23T11:44:36.318Z,-1.70
2019-01-23T11:47:06.050Z,-1.70
2019-01-23T11:49:35.812Z,-1.60
2019-01-23T11:52:05.519Z,-1.60
2019-01-23T11:54:35.189Z,-1.60
2019-01-23T11:57:04.845Z,-1.60
2019-01-23T11:59:34.573Z,-1.60
2019-01-23T12:02:04.322Z,-1.60
2019-01-23T12:04:34.150Z,-1.50
2019-01-23T12:07:03.813Z,-1.50
2019-01-23T12:09:33.469Z,-1.50
2019-01-23T12:12:03.131Z,-1.50
2019-01-23T12:14:32.886Z,-1.40
2019-01-23T12:17:02.549Z,-1.40
2019-01-23T12:19:32.585Z,-1.30
2019-01-23T12:22:02.217Z,-1.30
2019-01-23T12:24:31.881Z,-1.30
2019-01-23T12:27:01.631Z,-1.20
2019-01-23T12:29:31.247Z,-1.20
2019-01-23T12:32:00.949Z,-1.20
2019-01-23T12:34:31.585Z,-1.10
2019-01-23T12:37:01.314Z,-1.10
2019-01-23T12:39:30.964Z,-1.00
2019-01-23T12:42:00.660Z,-1.00
2019-01-23T12:44:30.301Z,-0.80
2019-01-23T12:46:59.982Z,-0.70
2019-01-23T12:49:29.882Z,-0.70
2019-01-23T12:51:59.513Z,-0.60
2019-01-23T12:54:29.230Z,-0.60
2019-01-23T12:56:58.849Z,-0.60
2019-01-23T12:59:28.582Z,-0.60
2019-01-23T13:01:58.518Z,-0.70
2019-01-23T13:04:28.172Z,-0.70
2019-01-23T13:06:57.892Z,-0.70
2019-01-23T13:09:27.610Z,-0.70
2019-01-23T13:11:57.258Z,-0.80
2019-01-23T13:14:26.973Z,-0.80
2019-01-23T13:16:57.149Z,-0.80
2019-01-23T13:19:26.793Z,-0.80
2019-01-23T13:21:56.606Z,-0.80
2019-01-23T13:24:26.256Z,-0.80
2019-01-23T13:26:55.937Z,-0.80
2019-01-23T13:29:25.645Z,-0.80
2019-01-23T13:31:55.354Z,-0.80
2019-01-23T13:34:25.110Z,-0.80
2019-01-23T13:36:54.741Z,-0.80
2019-01-23T13:39:24.385Z,-0.80
2019-01-23T13:41:54.041Z,-0.70
2019-01-23T13:44:23.773Z,-0.70
2019-01-23T13:46:53.486Z,-0.70
2019-01-23T13:49:23.109Z,-0.70
2019-01-23T13:51:52.854Z,-0.70
2019-01-23T13:54:22.574Z,-0.70
2019-01-23T13:56:52.361Z,-0.80
2019-01-23T13:59:22.079Z,-0.80
2019-01-23T14:01:56.458Z,-0.80
2019-01-23T14:04:24.247Z,-0.80
2019-01-23T14:06:54.066Z,-0.80
2019-01-23T14:09:23.885Z,-0.80
2019-01-23T14:11:53.594Z,-0.80
2019-01-23T14:14:23.339Z,-0.80
2019-01-23T14:16:53.186Z,-0.70
2019-01-23T14:19:22.832Z,-0.70
2019-01-23T14:21:52.542Z,-0.70
2019-01-23T14:24:22.245Z,-0.70
2019-01-23T14:26:51.908Z,-0.70
2019-01-23T14:29:21.509Z,-0.70
2019-01-23T14:31:51.419Z,-0.70
2019-01-23T14:34:21.127Z,-0.70
2019-01-23T14:36:50.842Z,-0.70
2019-01-23T14:39:20.642Z,-0.70
2019-01-23T14:41:50.307Z,-0.70
2019-01-23T14:44:20.058Z,-0.70
2019-01-23T14:46:49.690Z,-0.60
2019-01-23T14:49:19.366Z,-0.60
2019-01-23T14:51:49.050Z,-0.60
2019-01-23T14:54:18.696Z,-0.60
2019-01-23T14:56:48.481Z,-0.60
2019-01-23T14:59:18.133Z,-0.60
2019-01-23T15:01:47.912Z,-0.60
2019-01-23T15:04:17.789Z,-0.50
2019-01-23T15:06:47.520Z,-0.50
2019-01-23T15:09:17.231Z,-0.50
2019-01-23T15:11:46.883Z,-0.50
2019-01-23T15:14:16.618Z,-0.50
2019-01-23T15:16:46.269Z,-0.40
2019-01-23T15:19:15.971Z,-0.40
2019-01-23T15:21:45.618Z,-0.40
2019-01-23T15:24:15.280Z,-0.40
2019-01-23T15:26:44.985Z,-0.40
2019-01-23T15:29:14.657Z,-0.50
2019-01-23T15:31:44.309Z,-0.50
2019-01-23T15:34:14.050Z,-0.50
2019-01-23T15:36:44.393Z,-0.50
2019-01-23T15:39:14.090Z,-0.50
2019-01-23T15:41:43.863Z,-0.50
2019-01-23T15:44:13.680Z,-0.50
2019-01-23T15:46:43.500Z,-0.50
2019-01-23T15:49:13.126Z,-0.50
2019-01-23T15:51:42.851Z,-0.50
2019-01-23T15:54:12.581Z,-0.50
2019-01-23T15:56:42.296Z,-0.60
2019-01-23T15:59:12.002Z,-0.50
2019-01-23T16:01:41.658Z,-0.50
2019-01-23T16:04:11.304Z,-0.50
2019-01-23T16:06:41.999Z,-0.50
2019-01-23T16:09:11.634Z,-0.60
2019-01-23T16:11:42.238Z,-0.60
2019-01-23T16:14:12.002Z,-0.60
2019-01-23T16:16:41.633Z,-0.60
2019-01-23T16:19:11.307Z,-0.60
2019-01-23T16:21:45.585Z,-0.60
2019-01-23T16:24:12.344Z,-0.70
2019-01-23T16:26:42.113Z,-0.70
2019-01-23T16:29:11.936Z,-0.70
2019-01-23T16:31:41.633Z,-0.70
2019-01-23T16:34:11.269Z,-0.70
2019-01-23T16:36:41.870Z,-0.70
2019-01-23T16:39:11.548Z,-0.70
2019-01-23T16:41:41.239Z,-0.70
2019-01-23T16:44:11.076Z,-0.70
2019-01-23T16:46:41.407Z,-0.60
2019-01-23T16:49:11.229Z,-0.60
2019-01-23T16:51:40.878Z,-0.60
2019-01-23T16:54:11.418Z,-0.60
2019-01-23T16:56:41.061Z,-0.60
2019-01-23T16:59:11.647Z,-0.60
2019-01-23T17:01:41.474Z,-0.70
2019-01-23T17:04:11.082Z,-0.70
2019-01-23T17:06:40.705Z,-0.70
2019-01-23T17:09:10.581Z,-0.70
2019-01-23T17:11:40.181Z,-0.70
2019-01-23T17:14:09.887Z,-0.70
2019-01-23T17:16:40.398Z,-0.70
2019-01-23T17:19:11.246Z,-0.70
2019-01-23T17:21:40.840Z,-0.70
2019-01-23T17:24:11.404Z,-0.70
2019-01-23T17:26:41.234Z,-0.70
2019-01-23T17:29:11.685Z,-0.70
2019-01-23T17:31:42.297Z,-0.70
2019-01-23T17:34:12.027Z,-0.70
2019-01-23T17:36:41.729Z,-0.70
2019-01-23T17:39:11.418Z,-0.70
2019-01-23T17:41:41.053Z,-0.70
2019-01-23T17:44:11.788Z,-0.70
2019-01-23T17:46:41.607Z,-0.70
2019-01-23T17:49:11.270Z,-0.70
2019-01-23T17:51:40.922Z,-0.70
2019-01-23T17:54:10.551Z,-0.70
2019-01-23T17:56:40.188Z,-0.70
2019-01-23T17:59:09.814Z,-0.70
2019-01-23T18:01:39.431Z,-0.70
2019-01-23T18:04:09.070Z,-0.80
2019-01-23T18:06:38.709Z,-0.80
2019-01-23T18:09:08.576Z,-0.80
2019-01-23T18:11:38.601Z,-0.90
2019-01-23T18:14:08.266Z,-0.90
2019-01-23T18:16:38.003Z,-1.00
2019-01-23T18:19:07.717Z,-1.00
2019-01-23T18:21:37.385Z,-1.10
2019-01-23T18:24:06.987Z,-1.20
2019-01-23T18:26:37.704Z,-1.20
2019-01-23T18:29:07.488Z,-1.30
2019-01-23T18:31:37.185Z,-1.30
2019-01-23T18:34:19.060Z,-1.40
2019-01-23T18:37:01.026Z,-1.40
2019-01-23T18:40:00.882Z,-1.50
2019-01-23T18:43:05.942Z,-1.60
2019-01-23T18:45:38.928Z,-1.70
2019-01-23T18:48:28.338Z,-1.70
2019-01-23T18:51:01.325Z,-1.80
2019-01-23T18:53:31.048Z,-1.80
2019-01-23T18:56:00.650Z,-1.80
2019-01-23T18:58:30.257Z,-1.80
2019-01-23T19:00:59.933Z,-1.80
2019-01-23T19:03:29.651Z,-1.80
2019-01-23T19:05:59.306Z,-1.80
2019-01-23T19:08:28.983Z,-1.80
2019-01-23T19:10:58.606Z,-1.80
2019-01-23T19:13:28.209Z,-1.80
2019-01-23T19:15:59.058Z,-1.80
2019-01-23T19:18:28.777Z,-1.80
2019-01-23T19:20:58.422Z,-1.80
2019-01-23T19:23:28.064Z,-1.80
2019-01-23T19:25:58.666Z,-1.80
2019-01-23T19:28:28.257Z,-1.70
2019-01-23T19:30:57.957Z,-1.80
2019-01-23T19:33:27.862Z,-1.70
2019-01-23T19:35:57.858Z,-1.70
2019-01-23T19:38:27.667Z,-1.80
2019-01-23T19:40:57.389Z,-1.70
2019-01-23T19:43:27.114Z,-1.70
2019-01-23T19:45:56.829Z,-1.70
2019-01-23T19:48:27.593Z,-1.70
2019-01-23T19:50:57.297Z,-1.70
2019-01-23T19:53:26.996Z,-1.70
2019-01-23T19:55:56.706Z,-1.70
2019-01-23T19:58:26.315Z,-1.70
2019-01-23T20:00:56.043Z,-1.70
2019-01-23T20:03:25.771Z,-1.70
2019-01-23T20:05:56.389Z,-1.70
2019-01-23T20:08:26.029Z,-1.70
2019-01-23T20:10:55.762Z,-1.60
2019-01-23T20:13:26.177Z,-1.60
2019-01-23T20:15:55.959Z,-1.60
2019-01-23T20:18:25.555Z,-1.60
2019-01-23T20:20:55.315Z,-1.60
2019-01-23T20:23:25.013Z,-1.50
2019-01-23T20:25:54.666Z,-1.50
2019-01-23T20:28:24.256Z,-1.50
2019-01-23T20:30:54.247Z,-1.50
2019-01-23T20:33:28.002Z,-1.40
2019-01-23T20:35:55.462Z,-1.40
2019-01-23T20:38:25.197Z,-1.40
2019-01-23T20:40:54.868Z,-1.40
2019-01-23T20:43:24.473Z,-1.40
2019-01-23T20:45:54.185Z,-1.30
2019-01-23T20:48:23.777Z,-1.30
2019-01-23T20:50:53.416Z,-1.30
2019-01-23T20:53:23.201Z,-1.30
2019-01-23T20:55:52.806Z,-1.30
2019-01-23T20:58:22.474Z,-1.30
2019-01-23T21:00:52.144Z,-1.30
2019-01-23T21:03:22.462Z,-1.20
2019-01-23T21:05:52.227Z,-1.20
2019-01-23T21:08:21.898Z,-1.20
2019-01-23T21:10:51.542Z,-1.20
2019-01-23T21:13:21.722Z,-1.20
2019-01-23T21:15:51.436Z,-1.20
2019-01-23T21:18:21.050Z,-1.20
2019-01-23T21:20:50.642Z,-1.10
2019-01-23T21:23:21.126Z,-1.10
2019-01-23T21:25:50.769Z,-1.10
2019-01-23T21:28:21.453Z,-1.10
2019-01-23T21:30:51.270Z,-1.10
2019-01-23T21:33:21.002Z,-1.00
2019-01-23T21:35:50.593Z,-1.00
2019-01-23T21:38:20.401Z,-1.00
2019-01-23T21:40:50.011Z,-1.00
2019-01-23T21:43:19.670Z,-1.00
2019-01-23T21:45:49.367Z,-1.00
2019-01-23T21:48:19.388Z,-0.90
2019-01-23T21:50:49.213Z,-0.90
2019-01-23T21:53:18.893Z,-0.90
2019-01-23T21:55:48.498Z,-0.90
2019-01-23T21:58:18.206Z,-0.90
2019-01-23T22:00:47.801Z,-0.90
2019-01-23T22:03:17.590Z,-0.90
2019-01-23T22:05:47.362Z,-0.90
2019-01-23T22:08:17.008Z,-0.80
2019-01-23T22:10:46.765Z,-0.80
2019-01-23T22:13:16.414Z,-0.90
2019-01-23T22:15:46.118Z,-0.80
2019-01-23T22:18:15.930Z,-0.80
2019-01-23T22:20:45.652Z,-0.80
2019-01-23T22:23:16.280Z,-0.80
2019-01-23T22:25:45.954Z,-0.80
2019-01-23T22:28:15.634Z,-0.80
2019-01-23T22:30:45.438Z,-0.80
2019-01-23T22:33:15.137Z,-0.80
2019-01-23T22:35:44.848Z,-0.80
2019-01-23T22:38:14.488Z,-0.80
2019-01-23T22:40:44.084Z,-0.80
2019-01-23T22:43:15.082Z,-0.80
2019-01-23T22:45:44.961Z,-0.80
2019-01-23T22:48:14.632Z,-0.80
2019-01-23T22:50:45.103Z,-0.80
2019-01-23T22:53:14.742Z,-0.80
2019-01-23T22:55:44.394Z,-0.90
2019-01-23T22:58:14.158Z,-0.90
2019-01-23T23:00:59.665Z,-0.90
2019-01-23T23:03:30.971Z,-0.90
2019-01-23T23:06:00.621Z,-0.90
2019-01-23T23:08:30.313Z,-1.00
2019-01-23T23:11:00.134Z,-1.00
2019-01-23T23:13:29.777Z,-1.00
2019-01-23T23:15:59.369Z,-1.00
2019-01-23T23:18:28.997Z,-1.00
2019-01-23T23:20:58.650Z,-1.00
2019-01-23T23:23:28.348Z,-0.90
2019-01-23T23:25:58.237Z,-0.90
2019-01-23T23:28:28.570Z,-0.90
2019-01-23T23:30:58.256Z,-0.90
2019-01-23T23:33:27.962Z,-0.80
2019-01-23T23:35:57.756Z,-0.80
2019-01-23T23:38:27.481Z,-0.80
2019-01-23T23:40:57.125Z,-0.80
2019-01-23T23:43:26.762Z,-0.70
2019-01-23T23:45:56.694Z,-0.70
2019-01-23T23:48:26.428Z,-0.70
2019-01-23T23:50:56.042Z,-0.70
2019-01-23T23:53:25.954Z,-0.70
2019-01-23T23:55:55.713Z,-0.70
2019-01-23T23:58:25.473Z,-0.70
